A81450 / N96AV 7700 Squawk Report (5th of December, 2022)

Aircraft BE99 Reg No. N96AV Age N/A
Model C.99 Turboprop engines 2 First flight N/A
Registered 06-83 Rollout N/A Delivered 06-83
Construction No. U-201 Line No. N/A Series N/A
ADSHEX AD59E1 Airline name Ameriflight Owner UAS Transervices Inc
Airfield based Dallas-Fort Worth~TX~N First tracked N/A

Flight history for N96AV

Route Flight No Date Playback
Bob Hope (BUR) - Reno Tahoe Intl (RNO) N/A 2023-02-07 21:18:00
Los Angeles Intl (LAX) - Bob Hope (BUR) N/A 2023-02-04 12:48:00
Reno Tahoe Intl (RNO) - Los Angeles Intl (LAX) N/A 2023-02-04 06:41:00
Los Angeles Intl (LAX) - Reno Tahoe Intl (RNO) N/A 2023-02-03 15:25:00
Reno Tahoe Intl (RNO) - Los Angeles Intl (LAX) N/A 2023-02-03 07:01:00
Los Angeles Intl (LAX) - Reno Tahoe Intl (RNO) N/A 2023-02-02 15:24:00
Reno Tahoe Intl (RNO) - Los Angeles Intl (LAX) N/A 2023-02-02 06:38:00
Los Angeles Intl (LAX) - Reno Tahoe Intl (RNO) A81450 2023-02-01 15:22:00
Reno Tahoe Intl (RNO) - Los Angeles Intl (LAX) N/A 2023-02-01 07:29:00
Bob Hope (BUR) - Reno Tahoe Intl (RNO) N/A 2023-01-28 15:52:00
Los Angeles Intl (LAX) - Bob Hope (BUR) N/A 2023-01-21 13:40:00
Reno Tahoe Intl (RNO) - Los Angeles Intl (LAX) N/A 2023-01-21 06:33:00
Los Angeles Intl (LAX) - Reno Tahoe Intl (RNO) N/A 2023-01-20 15:49:00
Reno Tahoe Intl (RNO) - Los Angeles Intl (LAX) N/A 2023-01-20 13:21:00
Los Angeles Intl (LAX) - Reno Tahoe Intl (RNO) A81450 2023-01-19 16:01:00
Reno Tahoe Intl (RNO) - Los Angeles Intl (LAX) N/A 2023-01-19 06:26:00
Los Angeles Intl (LAX) - Reno Tahoe Intl (RNO) N/A 2023-01-18 15:42:00
Reno Tahoe Intl (RNO) - Los Angeles Intl (LAX) N/A 2023-01-18 06:36:00
Bob Hope (BUR) - Reno Tahoe Intl (RNO) N/A 2023-01-14 18:19:00
Los Angeles Intl (LAX) - Bob Hope (BUR) N/A 2023-01-07 07:42:00
Time Lat Lon Altitude Heading Speed Vertical Rate
2022-12-05 16:57:31 GMT 39.533432 -119.766617 5,225 178 129 -1088
2022-12-05 16:57:20 GMT 39.539516 -119.766663 5,350 184 130 -1088
2022-12-05 16:57:15 GMT 39.542908 -119.766258 5,475 188 128 -1280
2022-12-05 16:57:04 GMT 39.548813 -119.764412 5,675 201 125 -1344
2022-12-05 16:56:54 GMT 39.554317 -119.760559 5,900 222 126 -1536
2022-12-05 16:56:37 GMT 39.559662 -119.749367 6,325 255 135 -1344
2022-12-05 16:55:40 GMT 39.549362 -119.700104 7,200 348 183 -576
2022-12-05 16:55:31 GMT 39.540726 -119.698120 7,275 8 182 448
2022-12-05 16:55:19 GMT 39.532745 -119.703506 7,125 48 183 512
2022-12-05 16:55:09 GMT 39.529221 -119.713776 7,100 84 173 256
2022-12-05 16:54:36 GMT 39.544777 -119.729736 6,975 204 159 64
2022-12-05 16:53:54 GMT 39.542862 -119.701302 6,625 6 194 64
2022-12-05 16:53:45 GMT 39.535233 -119.705872 6,600 43 193 640
2022-12-05 16:53:33 GMT 39.530548 -119.716705 6,725 75 176 -896
2022-12-05 16:53:25 GMT 39.530273 -119.725540 6,725 98 167 640
2022-12-05 16:53:13 GMT 39.533936 -119.734978 6,600 134 166 512
2022-12-05 16:53:04 GMT 39.540802 -119.739334 6,550 172 169 512
2022-12-05 16:52:45 GMT 39.553436 -119.732727 6,525 230 175 448
2022-12-05 16:52:11 GMT 39.547337 -119.700012 6,725 342 198 320
2022-12-05 16:52:01 GMT 39.538055 -119.697121 6,725 2 199 -448
2022-12-05 16:51:49 GMT 39.528343 -119.700623 6,750 31 195 0
2022-12-05 16:51:40 GMT 39.521965 -119.708984 6,800 60 183 -384
2022-12-05 16:51:28 GMT 39.520020 -119.719627 6,800 100 163 448
2022-12-05 16:51:18 GMT 39.523457 -119.729370 6,625 133 164 704
2022-12-05 16:51:08 GMT 39.529648 -119.733704 6,575 169 166 704
2022-12-05 16:50:56 GMT 39.539703 -119.731689 6,625 205 175 -1664
2022-12-05 16:50:38 GMT 39.550129 -119.721924 7,025 237 163 -192
2022-12-05 16:50:32 GMT 39.552155 -119.716110 7,075 276 168 -64
2022-12-05 16:50:08 GMT 39.543148 -119.697876 7,175 324 173 -768
2022-12-05 16:50:05 GMT 39.540436 -119.697716 7,125 5 179 896
2022-12-05 16:49:55 GMT 39.532578 -119.702393 7,000 45 179 384
2022-12-05 16:49:44 GMT 39.528671 -119.712044 6,900 79 174 704
2022-12-05 16:49:32 GMT 39.527664 -119.723991 6,750 93 177 1024
2022-12-05 16:49:19 GMT 39.531601 -119.736328 6,725 125 175 -704
2022-12-05 16:49:12 GMT 39.535904 -119.740410 6,850 156 164 -768
2022-12-05 16:49:01 GMT 39.544312 -119.741394 6,875 200 165 -64
2022-12-05 16:48:50 GMT 39.551056 -119.735390 6,900 237 171 -384
2022-12-05 16:48:23 GMT 39.549477 -119.709229 7,225 325 179 -960
2022-12-05 16:48:13 GMT 39.541077 -119.706017 7,250 3 182 640
2022-12-05 16:48:08 GMT 39.537327 -119.706909 7,225 19 184 384
2022-12-05 16:48:00 GMT 39.531006 -119.711807 7,150 44 182 384
2022-12-05 16:47:49 GMT 39.526573 -119.721313 7,100 71 175 448
2022-12-05 16:47:39 GMT 39.524387 -119.732178 7,000 79 170 512
2022-12-05 16:47:27 GMT 39.524342 -119.742615 6,925 100 168 384
2022-12-05 16:47:18 GMT 39.527225 -119.752686 6,900 120 176 -768
2022-12-05 16:47:07 GMT 39.532745 -119.760948 7,050 143 173 -384
2022-12-05 16:46:57 GMT 39.539978 -119.765961 7,150 161 175 -768
2022-12-05 16:46:45 GMT 39.548950 -119.767632 7,300 182 175 -384
2022-12-05 16:46:36 GMT 39.557018 -119.766968 7,350 187 177 -192
2022-12-05 16:46:25 GMT 39.565678 -119.765320 7,400 189 180 -512
2022-12-05 16:46:15 GMT 39.574196 -119.763855 7,500 187 179 -448
2022-12-05 16:46:01 GMT 39.585789 -119.762085 7,475 189 187 448
2022-12-05 16:45:54 GMT 39.592346 -119.760826 7,450 189 192 192
2022-12-05 16:45:43 GMT 39.601337 -119.759399 7,475 187 186 -192
2022-12-05 16:45:33 GMT 39.610043 -119.758179 7,375 186 186 1088
2022-12-05 16:45:22 GMT 39.619446 -119.757874 7,200 177 194 -448
2022-12-05 16:44:37 GMT 39.658642 -119.758362 7,375 186 175 256
2022-12-05 16:44:29 GMT 39.664444 -119.757965 7,350 182 175 -384
2022-12-05 16:44:02 GMT 39.687103 -119.757248 7,475 174 169 -640
2022-12-05 16:44:00 GMT 39.687832 -119.757324 7,475 175 169 -256
2022-12-05 16:43:49 GMT 39.696304 -119.758667 7,275 169 181 576
2022-12-05 16:43:36 GMT 39.706917 -119.758301 7,450 204 165 192
2022-12-05 16:43:15 GMT 39.719971 -119.744469 7,525 235 161 -1280
2022-12-05 16:42:17 GMT 39.715118 -119.697716 7,525 341 178 -128
2022-12-05 16:42:14 GMT 39.711685 -119.696220 7,525 345 179 64
2022-12-05 16:42:03 GMT 39.702915 -119.693665 7,550 356 184 -448
2022-12-05 16:41:53 GMT 39.693649 -119.694702 7,700 14 187 -1088
2022-12-05 16:41:43 GMT 39.687149 -119.698975 7,800 38 195 -512
2022-12-05 16:41:32 GMT 39.676895 -119.704819 8,025 2 200 -704
2022-12-05 16:41:24 GMT 39.670441 -119.704582 8,150 348 198 -1472
2022-12-05 16:41:20 GMT 39.666790 -119.703247 8,250 340 196 -1408
2022-12-05 16:41:10 GMT 39.657944 -119.697754 8,500 333 198 -1472
2022-12-05 16:40:40 GMT 39.634003 -119.679802 8,975 329 202 640
2022-12-05 16:40:35 GMT 39.630753 -119.677116 8,925 328 210 768
2022-12-05 16:40:29 GMT 39.625214 -119.671982 8,875 327 210 128
2022-12-05 16:40:18 GMT 39.616379 -119.666847 8,975 348 207 -1344
2022-12-05 16:40:08 GMT 39.606457 -119.666809 9,000 12 205 1280
2022-12-05 16:39:57 GMT 39.596684 -119.670349 8,825 15 213 -512
2022-12-05 16:39:47 GMT 39.586861 -119.674316 9,000 18 203 0
2022-12-05 16:39:36 GMT 39.577595 -119.678772 8,750 18 210 256
2022-12-05 16:39:26 GMT 39.567215 -119.682495 8,925 14 200 -960
2022-12-05 16:39:15 GMT 39.558460 -119.685303 8,900 14 190 1536
2022-12-05 16:39:05 GMT 39.549477 -119.688538 8,500 15 194 -896
2022-12-05 16:38:54 GMT 39.540585 -119.691528 8,700 13 187 -768
2022-12-05 16:38:44 GMT 39.531509 -119.694214 8,800 12 187 -640
2022-12-05 16:38:33 GMT 39.522758 -119.696655 9,000 9 189 -1856
2022-12-05 16:38:22 GMT 39.513245 -119.698196 9,300 7 186 -1216
2022-12-05 16:38:11 GMT 39.504414 -119.699890 9,400 9 193 -768
2022-12-05 16:38:02 GMT 39.494888 -119.702316 9,575 13 198 -1088
2022-12-05 16:37:51 GMT 39.485657 -119.705566 9,800 15 202 -1280
2022-12-05 16:37:41 GMT 39.475937 -119.709244 10,075 17 205 -960
2022-12-05 16:37:33 GMT 39.469872 -119.711975 10,200 19 209 -1216
2022-12-05 16:37:30 GMT 39.466568 -119.713623 10,300 22 210 -2112
2022-12-05 16:37:19 GMT 39.456390 -119.719872 10,675 31 210 -896
2022-12-05 16:37:08 GMT 39.448784 -119.726868 10,775 41 220 -256
2022-12-05 16:37:04 GMT 39.445862 -119.730438 10,775 45 231 -1472
2022-12-05 16:36:59 GMT 39.441242 -119.736267 10,900 45 229 -1664
2022-12-05 16:36:48 GMT 39.433548 -119.747154 11,050 51 246 1216
2022-12-05 16:36:38 GMT 39.426636 -119.760529 11,075 60 267 -2240
2022-12-05 16:36:34 GMT 39.424297 -119.766357 11,350 67 263 -3712
2022-12-05 16:36:26 GMT 39.421459 -119.777283 11,675 75 260 -1664
2022-12-05 16:36:23 GMT 39.420593 -119.781670 11,750 75 261 -1344
2022-12-05 16:36:17 GMT 39.418526 -119.791870 11,900 74 264 -1664
2022-12-05 16:36:12 GMT 39.417271 -119.797668 12,025 74 264 -1728
2022-12-05 16:36:06 GMT 39.414963 -119.808121 12,225 73 263 -1664
2022-12-05 16:36:02 GMT 39.413818 -119.813255 12,300 73 262 -1728
2022-12-05 16:35:56 GMT 39.411346 -119.823936 12,550 73 254 -2432
2022-12-05 16:35:51 GMT 39.410110 -119.829132 12,700 72 252 -2048
2022-12-05 16:35:45 GMT 39.407959 -119.838333 12,875 73 249 -1088
2022-12-05 16:35:40 GMT 39.406239 -119.846130 12,925 74 246 -384
2022-12-05 16:35:35 GMT 39.404701 -119.853149 12,925 74 243 192
2022-12-05 16:35:24 GMT 39.401489 -119.867981 12,875 74 243 384
2022-12-05 16:35:14 GMT 39.397934 -119.883049 12,800 70 251 256
2022-12-05 16:35:01 GMT 39.392967 -119.899963 12,800 67 257 -384
2022-12-05 16:34:56 GMT 39.390503 -119.907654 12,825 67 258 -576
2022-12-05 16:34:50 GMT 39.387711 -119.916870 12,900 69 259 -512
2022-12-05 16:34:42 GMT 39.384499 -119.928223 12,950 69 259 64
2022-12-05 16:34:39 GMT 39.383286 -119.932251 12,925 69 260 704
2022-12-05 16:34:31 GMT 39.379887 -119.944702 12,850 72 263 -64
2022-12-05 16:34:28 GMT 39.378910 -119.948547 12,850 72 263 -128
2022-12-05 16:34:19 GMT 39.375595 -119.963417 12,925 74 260 -768
2022-12-05 16:34:11 GMT 39.372940 -119.974648 13,000 70 256 448
2022-12-05 16:34:08 GMT 39.371880 -119.978516 13,000 70 257 704
2022-12-05 16:34:00 GMT 39.368576 -119.990173 12,875 69 262 640
2022-12-05 16:33:57 GMT 39.367737 -119.993103 12,850 70 263 384
2022-12-05 16:33:50 GMT 39.364479 -120.005615 12,900 73 260 -576
2022-12-05 16:33:47 GMT 39.363827 -120.008606 12,925 73 259 -576
2022-12-05 16:33:39 GMT 39.360706 -120.021179 12,975 71 256 -64
2022-12-05 16:33:36 GMT 39.359871 -120.024353 12,975 71 255 -128
2022-12-05 16:33:27 GMT 39.356323 -120.039009 12,975 75 254 320
2022-12-05 16:33:16 GMT 39.353447 -120.054871 12,975 77 254 192
2022-12-05 16:33:06 GMT 39.350372 -120.070862 12,875 74 258 -192
2022-12-05 16:32:55 GMT 39.347023 -120.085571 12,950 73 253 -320
2022-12-05 16:32:44 GMT 39.344147 -120.100571 12,975 78 249 192
2022-12-05 16:32:34 GMT 39.341530 -120.116272 12,850 75 256 512
2022-12-05 16:32:23 GMT 39.338104 -120.131737 12,950 75 253 -1408
2022-12-05 16:32:14 GMT 39.335754 -120.146118 13,025 79 247 320
2022-12-05 16:32:03 GMT 39.333473 -120.161621 12,900 78 253 1728
2022-12-05 16:31:52 GMT 39.330402 -120.177063 12,800 69 257 -960
2022-12-05 16:31:41 GMT 39.324188 -120.192757 12,950 58 249 -512
2022-12-05 16:31:32 GMT 39.318253 -120.203491 12,800 46 251 576
2022-12-05 16:31:21 GMT 39.308853 -120.214615 12,850 34 243 -1280
2022-12-05 16:31:11 GMT 39.298794 -120.221375 13,075 21 223 -1024
2022-12-05 16:31:00 GMT 39.289398 -120.226257 13,100 22 219 1600
2022-12-05 16:30:51 GMT 39.279236 -120.231445 12,750 20 236 448
2022-12-05 16:30:38 GMT 39.267139 -120.237671 12,875 22 234 0
2022-12-05 16:30:29 GMT 39.258133 -120.242676 12,750 25 243 512
2022-12-05 16:30:19 GMT 39.247513 -120.248589 12,775 18 243 -256
2022-12-05 16:30:09 GMT 39.236526 -120.253006 12,900 16 241 -1216
2022-12-05 16:30:08 GMT 39.234692 -120.253662 12,925 14 238 -1344
2022-12-05 16:29:58 GMT 39.224213 -120.257126 13,025 14 237 1088
2022-12-05 16:29:48 GMT 39.213501 -120.260529 12,875 15 246 0
2022-12-05 16:29:38 GMT 39.203175 -120.264526 13,000 18 242 -512
2022-12-05 16:29:34 GMT 39.199547 -120.266113 13,000 18 242 64
2022-12-05 16:29:24 GMT 39.187721 -120.270813 12,950 17 245 320
2022-12-05 16:29:17 GMT 39.176361 -120.275452 12,950 18 246 -192
2022-12-05 16:29:10 GMT 39.172264 -120.277222 12,975 18 245 -256
2022-12-05 16:29:05 GMT 39.166260 -120.279572 12,975 15 242 -192
2022-12-05 16:28:56 GMT 39.157742 -120.282288 13,050 12 238 320
2022-12-05 16:28:53 GMT 39.155045 -120.283096 13,000 12 239 256
2022-12-05 16:28:44 GMT 39.143463 -120.286324 12,950 12 242 384
2022-12-05 16:28:34 GMT 39.133068 -120.289490 12,925 14 243 -512
2022-12-05 16:28:31 GMT 39.130695 -120.290222 13,000 13 239 -896
2022-12-05 16:28:25 GMT 39.123802 -120.292297 12,975 15 238 960
2022-12-05 16:28:20 GMT 39.118607 -120.294205 12,900 17 241 512
2022-12-05 16:28:11 GMT 39.109978 -120.297913 12,925 17 240 -640
2022-12-05 16:28:08 GMT 39.105652 -120.299637 12,975 15 235 -448
2022-12-05 16:28:01 GMT 39.098969 -120.301903 13,025 14 233 384
2022-12-05 16:27:49 GMT 39.085236 -120.306862 12,875 16 239 256
2022-12-05 16:27:41 GMT 39.077087 -120.310562 12,925 24 239 -448
2022-12-05 16:27:36 GMT 39.073017 -120.313049 12,950 25 238 -384
2022-12-05 16:27:33 GMT 39.069763 -120.315102 12,975 25 236 -192
2022-12-05 16:27:30 GMT 39.065826 -120.317429 12,975 24 234 -64
2022-12-05 16:27:22 GMT 39.058914 -120.321373 12,975 23 232 128
2022-12-05 16:27:19 GMT 39.055939 -120.322922 12,950 21 231 128
2022-12-05 16:27:11 GMT 39.048622 -120.326477 12,925 20 231 256
2022-12-05 16:27:01 GMT 39.038269 -120.331459 12,875 20 231 64
2022-12-05 16:26:58 GMT 39.034424 -120.333191 12,875 17 229 -256
2022-12-05 16:26:52 GMT 39.027924 -120.335518 12,825 13 229 1408
2022-12-05 16:26:46 GMT 39.022648 -120.337097 12,750 12 232 448
2022-12-05 16:26:41 GMT 39.017258 -120.338623 12,825 13 231 -1216
2022-12-05 16:26:35 GMT 39.010544 -120.340820 12,900 14 226 -640
2022-12-05 16:26:31 GMT 39.006638 -120.342148 12,925 14 223 -448
2022-12-05 16:26:26 GMT 39.001743 -120.343811 12,975 15 223 384
2022-12-05 16:26:19 GMT 38.994827 -120.346451 12,875 18 235 320
2022-12-05 16:26:15 GMT 38.989780 -120.348572 12,850 17 237 384
2022-12-05 16:26:10 GMT 38.985592 -120.350281 12,800 17 238 192
2022-12-05 16:26:05 GMT 38.980331 -120.352478 12,825 18 241 -192
2022-12-05 16:26:00 GMT 38.974373 -120.355042 12,875 17 239 -1216
2022-12-05 16:25:49 GMT 38.963104 -120.359642 13,050 18 231 576
2022-12-05 16:25:38 GMT 38.951653 -120.364685 12,850 18 240 256
2022-12-05 16:25:33 GMT 38.946720 -120.366577 12,875 14 239 -192
2022-12-05 16:25:27 GMT 38.940250 -120.368591 12,900 12 236 -1152
2022-12-05 16:25:17 GMT 38.928864 -120.372124 13,025 15 229 192
2022-12-05 16:25:06 GMT 38.918510 -120.375916 12,950 16 232 512
2022-12-05 16:24:57 GMT 38.909225 -120.379463 12,925 16 236 -128
2022-12-05 16:24:54 GMT 38.907009 -120.380249 12,925 16 235 -128
2022-12-05 16:24:45 GMT 38.896088 -120.384361 12,975 16 231 -192
2022-12-05 16:24:40 GMT 38.892197 -120.385857 12,975 16 229 128
2022-12-05 16:24:34 GMT 38.885365 -120.388428 12,925 16 230 640
2022-12-05 16:24:26 GMT 38.877228 -120.391708 12,850 18 234 128
2022-12-05 16:24:23 GMT 38.874237 -120.393005 12,850 18 234 0
2022-12-05 16:24:16 GMT 38.866093 -120.396667 12,900 20 232 -384
2022-12-05 16:24:13 GMT 38.862946 -120.398155 12,925 21 231 -512
2022-12-05 16:24:10 GMT 38.860085 -120.399658 12,950 22 230 -384
2022-12-05 16:24:02 GMT 38.852871 -120.403809 12,925 26 233 768
2022-12-05 16:23:56 GMT 38.847885 -120.407051 12,850 26 236 256
2022-12-05 16:23:53 GMT 38.843700 -120.409729 12,850 26 236 256
2022-12-05 16:23:49 GMT 38.839645 -120.412247 12,850 25 236 -384
2022-12-05 16:23:44 GMT 38.835598 -120.414612 12,875 22 231 -704
2022-12-05 16:23:40 GMT 38.831314 -120.416603 12,925 18 227 -576
2022-12-05 16:23:37 GMT 38.828617 -120.417664 12,950 15 224 -256
2022-12-05 16:23:33 GMT 38.825272 -120.418816 12,950 13 223 128
2022-12-05 16:23:30 GMT 38.820648 -120.420128 12,925 11 222 576
2022-12-05 16:23:27 GMT 38.818516 -120.420715 12,900 11 224 576
2022-12-05 16:23:23 GMT 38.814419 -120.421692 12,850 9 225 448
2022-12-05 16:23:16 GMT 38.807693 -120.423050 12,850 8 226 -128
2022-12-05 16:23:07 GMT 38.796402 -120.425354 12,875 9 227 -256
2022-12-05 16:23:03 GMT 38.793777 -120.425858 12,875 9 227 -448
2022-12-05 16:22:54 GMT 38.783833 -120.428467 12,975 13 223 -640
2022-12-05 16:22:45 GMT 38.774803 -120.431335 13,050 15 221 320
2022-12-05 16:22:42 GMT 38.772720 -120.432068 13,025 15 222 384
2022-12-05 16:22:33 GMT 38.763256 -120.435608 12,900 15 228 896
2022-12-05 16:22:23 GMT 38.753723 -120.439117 12,875 16 230 -576
2022-12-05 16:22:20 GMT 38.750427 -120.440369 12,925 17 229 -832
2022-12-05 16:22:14 GMT 38.743881 -120.443237 13,025 20 224 -576
2022-12-05 16:22:11 GMT 38.740444 -120.444885 13,050 20 223 -320
2022-12-05 16:22:02 GMT 38.732906 -120.448547 13,000 21 224 576
2022-12-05 16:21:53 GMT 38.722988 -120.453857 12,725 20 239 -896
2022-12-05 16:21:50 GMT 38.720104 -120.455261 12,800 19 239 -1280
2022-12-05 16:21:39 GMT 38.708790 -120.459717 12,900 14 234 0
2022-12-05 16:21:36 GMT 38.704926 -120.460968 12,900 12 234 256
2022-12-05 16:21:32 GMT 38.701202 -120.462036 12,875 12 235 512
2022-12-05 16:21:27 GMT 38.696918 -120.463257 12,825 11 238 192
2022-12-05 16:21:24 GMT 38.693707 -120.464111 12,825 11 238 -128
2022-12-05 16:21:18 GMT 38.686203 -120.466103 12,875 12 239 -384
2022-12-05 16:21:08 GMT 38.675552 -120.469543 12,900 15 239 0
2022-12-05 16:21:00 GMT 38.666473 -120.472908 12,875 17 241 320
2022-12-05 16:20:52 GMT 38.659027 -120.475952 12,875 18 245 -320
2022-12-05 16:20:48 GMT 38.654388 -120.477928 12,900 17 244 -512
2022-12-05 16:20:38 GMT 38.643723 -120.482460 13,000 20 240 -576
2022-12-05 16:20:28 GMT 38.629578 -120.489929 13,025 22 239 128
2022-12-05 16:20:15 GMT 38.620621 -120.494507 13,000 22 239 384
2022-12-05 16:20:06 GMT 38.609680 -120.500122 12,950 21 240 320
2022-12-05 16:19:54 GMT 38.598312 -120.505753 12,925 21 241 128
2022-12-05 16:19:49 GMT 38.593094 -120.508316 12,925 20 242 128
2022-12-05 16:19:44 GMT 38.588360 -120.510437 12,900 19 241 192
2022-12-05 16:19:39 GMT 38.582214 -120.513062 12,900 17 241 128
2022-12-05 16:19:34 GMT 38.576981 -120.515060 12,875 16 241 192
2022-12-05 16:19:23 GMT 38.564991 -120.519226 12,900 15 240 -320
2022-12-05 16:19:13 GMT 38.553913 -120.523438 12,975 18 238 -320
2022-12-05 16:19:02 GMT 38.542328 -120.528435 12,975 19 238 128
2022-12-05 16:18:50 GMT 38.531250 -120.533333 12,950 19 239 384
2022-12-05 16:18:47 GMT 38.526772 -120.535461 12,900 20 240 320
2022-12-05 16:18:43 GMT 38.522507 -120.537514 12,900 20 241 256
2022-12-05 16:18:39 GMT 38.519882 -120.538757 12,875 20 242 128
2022-12-05 16:18:33 GMT 38.511749 -120.542648 12,875 20 242 -128
2022-12-05 16:18:30 GMT 38.508709 -120.544128 12,875 20 242 -64
2022-12-05 16:18:19 GMT 38.497581 -120.549438 12,900 21 241 64
2022-12-05 16:18:11 GMT 38.489548 -120.553459 12,850 21 243 448
2022-12-05 16:18:07 GMT 38.486084 -120.555237 12,825 22 244 256
2022-12-05 16:17:58 GMT 38.474991 -120.560860 12,825 20 245 -128
2022-12-05 16:17:50 GMT 38.467117 -120.564323 12,875 17 242 -256
2022-12-05 16:17:47 GMT 38.463455 -120.565819 12,875 17 242 -256
2022-12-05 16:17:39 GMT 38.455994 -120.568924 12,900 19 242 -192
2022-12-05 16:17:35 GMT 38.452335 -120.570618 12,925 21 242 0
2022-12-05 16:17:29 GMT 38.445026 -120.574463 12,925 23 245 0
2022-12-05 16:17:26 GMT 38.440838 -120.576721 12,925 22 244 -128
2022-12-05 16:17:19 GMT 38.434250 -120.580147 12,950 21 243 -320
2022-12-05 16:17:15 GMT 38.430038 -120.582237 12,950 19 241 -320
2022-12-05 16:17:12 GMT 38.426239 -120.583847 12,975 15 239 -384
2022-12-05 16:17:08 GMT 38.422913 -120.584839 13,000 11 235 -384
2022-12-05 16:17:03 GMT 38.418320 -120.585754 13,025 4 230 -256
2022-12-05 16:16:58 GMT 38.412003 -120.585823 13,025 357 226 -64
2022-12-05 16:16:50 GMT 38.404293 -120.584564 12,975 348 223 512
2022-12-05 16:16:47 GMT 38.401154 -120.583603 12,950 345 222 448
2022-12-05 16:16:43 GMT 38.396255 -120.581612 12,925 340 221 192
2022-12-05 16:16:37 GMT 38.391174 -120.578979 12,925 337 219 -256
2022-12-05 16:16:32 GMT 38.386089 -120.576088 12,975 336 217 -512
2022-12-05 16:16:26 GMT 38.381607 -120.573547 13,000 337 215 -384
2022-12-05 16:16:20 GMT 38.376663 -120.570862 13,025 337 213 -64
2022-12-05 16:16:16 GMT 38.371845 -120.568207 13,025 336 213 256
2022-12-05 16:16:09 GMT 38.366730 -120.565193 12,975 335 213 448
2022-12-05 16:16:04 GMT 38.362244 -120.562508 12,950 335 215 320
2022-12-05 16:16:00 GMT 38.356979 -120.559410 12,925 336 216 128
2022-12-05 16:15:55 GMT 38.352768 -120.557014 12,925 336 217 -64
2022-12-05 16:15:48 GMT 38.347229 -120.553917 12,925 337 217 0
2022-12-05 16:15:43 GMT 38.342972 -120.551575 12,925 337 217 64
2022-12-05 16:15:38 GMT 38.337204 -120.548424 12,925 338 218 128
2022-12-05 16:15:34 GMT 38.333019 -120.546173 12,900 337 218 0
2022-12-05 16:15:28 GMT 38.327179 -120.542984 12,925 338 218 -128
2022-12-05 16:15:25 GMT 38.323479 -120.541100 12,925 338 218 -256
2022-12-05 16:15:16 GMT 38.317474 -120.537903 12,950 338 217 -448
2022-12-05 16:15:13 GMT 38.313469 -120.535782 13,000 338 215 -384
2022-12-05 16:15:06 GMT 38.307606 -120.532677 13,050 338 213 192
2022-12-05 16:15:01 GMT 38.303925 -120.530830 13,025 340 213 384
2022-12-05 16:14:54 GMT 38.296783 -120.527321 12,975 338 215 128
2022-12-05 16:14:51 GMT 38.294106 -120.525871 12,975 337 215 0
2022-12-05 16:14:45 GMT 38.287857 -120.522354 12,975 337 216 192
2022-12-05 16:14:40 GMT 38.284607 -120.520615 12,975 338 215 384
2022-12-05 16:14:33 GMT 38.276779 -120.516571 12,925 339 212 320
2022-12-05 16:14:30 GMT 38.275063 -120.515724 12,900 339 211 320
2022-12-05 16:14:23 GMT 38.268036 -120.512245 12,825 339 208 832
2022-12-05 16:14:20 GMT 38.265614 -120.511002 12,775 339 207 1216
2022-12-05 16:14:13 GMT 38.258423 -120.507568 12,525 340 213 1792
2022-12-05 16:14:09 GMT 38.255745 -120.506287 12,450 339 216 1152
2022-12-05 16:13:59 GMT 38.246017 -120.501205 12,375 336 211 0
2022-12-05 16:13:51 GMT 38.239105 -120.497459 12,350 338 206 512
2022-12-05 16:13:48 GMT 38.236816 -120.496239 12,325 338 206 768
2022-12-05 16:13:41 GMT 38.230087 -120.492790 12,125 338 206 1472
2022-12-05 16:13:38 GMT 38.227161 -120.491241 12,075 338 208 1152
2022-12-05 16:13:27 GMT 38.217865 -120.486298 11,950 338 213 512
2022-12-05 16:13:17 GMT 38.207932 -120.481102 11,850 339 219 384
2022-12-05 16:13:08 GMT 38.199837 -120.477028 11,850 339 221 -640
2022-12-05 16:13:05 GMT 38.198044 -120.476135 11,900 339 220 -704
2022-12-05 16:12:56 GMT 38.188152 -120.471298 12,000 339 215 -448
2022-12-05 16:12:47 GMT 38.179688 -120.467194 12,025 340 215 -192
2022-12-05 16:12:44 GMT 38.178097 -120.466461 12,025 341 215 -192
2022-12-05 16:12:35 GMT 38.168335 -120.462341 12,050 343 215 0
2022-12-05 16:12:23 GMT 38.158264 -120.458580 12,050 345 214 -192
2022-12-05 16:12:13 GMT 38.147690 -120.454803 12,025 345 214 448
2022-12-05 16:12:07 GMT 38.142250 -120.452789 11,975 343 215 320
2022-12-05 16:12:02 GMT 38.138248 -120.451233 11,975 343 215 128
2022-12-05 16:11:52 GMT 38.128143 -120.447029 11,950 342 214 0
2022-12-05 16:11:42 GMT 38.118320 -120.442696 11,950 341 213 64
2022-12-05 16:11:36 GMT 38.112503 -120.440132 11,925 341 214 384
2022-12-05 16:11:31 GMT 38.108505 -120.438324 11,875 341 214 576
2022-12-05 16:11:24 GMT 38.102589 -120.435593 11,850 340 217 192
2022-12-05 16:11:21 GMT 38.098709 -120.433708 11,825 340 217 -192
2022-12-05 16:11:10 GMT 38.089050 -120.428970 11,925 339 213 -448
2022-12-05 16:11:00 GMT 38.078613 -120.423889 11,975 339 210 -64
2022-12-05 16:10:48 GMT 38.069118 -120.419174 11,950 339 210 320
2022-12-05 16:10:37 GMT 38.059341 -120.414185 11,875 339 214 192
2022-12-05 16:10:26 GMT 38.048492 -120.408844 11,900 340 214 -320
2022-12-05 16:10:16 GMT 38.039837 -120.404785 11,950 341 211 -256
2022-12-05 16:10:06 GMT 38.030014 -120.400604 11,950 343 211 128
2022-12-05 16:09:55 GMT 38.019726 -120.396301 11,900 341 212 256
2022-12-05 16:09:45 GMT 38.009720 -120.391869 11,900 341 214 0
2022-12-05 16:09:34 GMT 37.999989 -120.387405 11,900 339 213 -64
2022-12-05 16:09:23 GMT 37.990128 -120.382103 11,925 335 210 -128
2022-12-05 16:09:13 GMT 37.980881 -120.376381 11,925 335 208 -64
2022-12-05 16:09:05 GMT 37.975113 -120.372871 11,925 335 208 64
2022-12-05 16:09:02 GMT 37.971085 -120.370476 11,925 335 209 0
2022-12-05 16:08:51 GMT 37.962002 -120.365257 11,925 337 209 128
2022-12-05 16:08:40 GMT 37.952175 -120.359940 11,925 339 210 0
2022-12-05 16:08:30 GMT 37.942474 -120.355225 11,900 340 210 128
2022-12-05 16:08:19 GMT 37.933090 -120.350845 11,900 340 211 0
2022-12-05 16:08:08 GMT 37.923313 -120.346207 11,900 340 211 -192
2022-12-05 16:08:01 GMT 37.917263 -120.343346 11,925 340 210 -128
2022-12-05 16:07:58 GMT 37.913074 -120.341370 11,925 340 209 -64
2022-12-05 16:07:46 GMT 37.902420 -120.336464 11,900 341 210 256
2022-12-05 16:07:41 GMT 37.897842 -120.334358 11,875 340 211 128
2022-12-05 16:07:34 GMT 37.892822 -120.331940 11,875 339 211 64
2022-12-05 16:07:29 GMT 37.888260 -120.329613 11,875 338 210 -64
2022-12-05 16:07:25 GMT 37.883514 -120.327171 11,900 338 209 -192
2022-12-05 16:07:20 GMT 37.879089 -120.324837 11,900 337 208 -128
2022-12-05 16:07:13 GMT 37.873459 -120.321732 11,925 337 207 -64
2022-12-05 16:07:09 GMT 37.869732 -120.319756 11,925 337 206 64
2022-12-05 16:07:04 GMT 37.864517 -120.316948 11,925 338 207 128
2022-12-05 16:06:59 GMT 37.860443 -120.314789 11,900 338 208 256
2022-12-05 16:06:54 GMT 37.855907 -120.312355 11,875 337 209 256
2022-12-05 16:06:51 GMT 37.854584 -120.311630 11,850 337 209 256
2022-12-05 16:06:47 GMT 37.851013 -120.309647 11,850 337 210 192
2022-12-05 16:06:43 GMT 37.846161 -120.307076 11,825 337 211 128
2022-12-05 16:06:38 GMT 37.841675 -120.304619 11,825 337 211 -64
2022-12-05 16:06:32 GMT 37.836823 -120.302048 11,825 337 211 -128
2022-12-05 16:06:27 GMT 37.832397 -120.299637 11,850 337 211 -128
2022-12-05 16:06:22 GMT 37.826752 -120.296608 11,850 338 210 -64
2022-12-05 16:06:16 GMT 37.821598 -120.293907 11,850 338 209 128
2022-12-05 16:06:10 GMT 37.816525 -120.291336 11,850 339 211 0
2022-12-05 16:06:05 GMT 37.813202 -120.289597 11,850 338 210 -128
2022-12-05 16:06:00 GMT 37.807068 -120.286499 11,875 338 209 -192
2022-12-05 16:05:56 GMT 37.803535 -120.284706 11,900 339 209 -192
2022-12-05 16:05:51 GMT 37.799469 -120.282700 11,900 339 209 0
2022-12-05 16:05:48 GMT 37.797577 -120.281723 11,900 339 209 128
2022-12-05 16:05:44 GMT 37.793884 -120.279961 11,875 339 210 320
2022-12-05 16:05:38 GMT 37.788071 -120.277092 11,850 339 212 256
2022-12-05 16:05:32 GMT 37.782166 -120.274170 11,825 339 214 64
2022-12-05 16:05:28 GMT 37.777908 -120.272064 11,825 339 214 128
2022-12-05 16:05:21 GMT 37.771973 -120.269005 11,825 337 214 -192
2022-12-05 16:05:16 GMT 37.768250 -120.266983 11,825 336 213 -256
2022-12-05 16:05:10 GMT 37.762615 -120.263748 11,875 336 211 -384
2022-12-05 16:05:06 GMT 37.758892 -120.261604 11,900 336 210 -448
2022-12-05 16:05:03 GMT 37.755680 -120.259811 11,925 337 208 -448
2022-12-05 16:05:00 GMT 37.753464 -120.258629 11,950 337 208 -448
2022-12-05 16:04:54 GMT 37.748558 -120.255989 11,975 338 207 0
2022-12-05 16:04:50 GMT 37.743851 -120.253601 11,975 338 206 64
2022-12-05 16:04:42 GMT 37.737122 -120.250038 11,950 338 207 128
2022-12-05 16:04:39 GMT 37.735291 -120.249062 11,950 338 207 128
2022-12-05 16:04:34 GMT 37.730209 -120.246414 11,950 338 208 64
2022-12-05 16:04:29 GMT 37.726135 -120.244247 11,950 338 208 0
2022-12-05 16:04:19 GMT 37.716431 -120.239403 11,975 339 207 -256
2022-12-05 16:04:08 GMT 37.707550 -120.234962 12,000 338 206 64
2022-12-05 16:03:58 GMT 37.698280 -120.230194 11,975 338 206 128
2022-12-05 16:03:48 GMT 37.689438 -120.225601 11,950 338 207 128
2022-12-05 16:03:39 GMT 37.681103 -120.221298 11,925 341 205 -64
2022-12-05 16:03:36 GMT 37.679848 -120.220642 11,925 338 207 0
2022-12-05 16:03:26 GMT 37.670517 -120.215912 11,950 339 207 -64
2022-12-05 16:03:16 GMT 37.661362 -120.211525 11,950 341 206 -128
2022-12-05 16:03:05 GMT 37.651775 -120.207146 11,950 340 205 128
2022-12-05 16:02:56 GMT 37.642838 -120.202911 11,900 341 206 192
2022-12-05 16:02:44 GMT 37.632877 -120.198547 11,875 342 207 384
2022-12-05 16:02:34 GMT 37.623753 -120.194611 11,825 341 208 0
2022-12-05 16:02:23 GMT 37.613663 -120.190140 11,825 341 208 64
2022-12-05 16:02:13 GMT 37.604805 -120.185829 11,800 339 207 64
2022-12-05 16:02:04 GMT 37.595913 -120.181297 11,850 338 205 -448
2022-12-05 16:01:52 GMT 37.586197 -120.176346 11,900 339 202 -256
2022-12-05 16:01:43 GMT 37.577663 -120.172279 11,925 340 201 192
2022-12-05 16:01:32 GMT 37.568214 -120.167740 11,875 340 204 384
2022-12-05 16:01:21 GMT 37.559052 -120.163315 11,800 340 208 256
2022-12-05 16:01:11 GMT 37.549362 -120.158607 11,825 339 209 0
2022-12-05 16:01:01 GMT 37.540096 -120.154129 11,825 340 209 -128
2022-12-05 16:00:50 GMT 37.530556 -120.149406 11,900 338 208 -448
2022-12-05 16:00:42 GMT 37.522549 -120.145348 11,925 339 206 192
2022-12-05 16:00:39 GMT 37.521290 -120.144753 11,925 339 207 192
2022-12-05 16:00:29 GMT 37.511810 -120.140228 11,850 341 212 448
2022-12-05 16:00:18 GMT 37.502060 -120.135963 11,825 341 216 -320
2022-12-05 16:00:09 GMT 37.492149 -120.131798 11,875 342 214 -256
2022-12-05 16:00:00 GMT 37.484142 -120.128212 11,900 339 213 0
2022-12-05 15:59:57 GMT 37.482281 -120.127319 11,900 339 213 64
2022-12-05 15:59:48 GMT 37.472969 -120.122604 11,900 339 213 -512
2022-12-05 15:59:37 GMT 37.463287 -120.117767 11,975 340 210 -128
2022-12-05 15:59:27 GMT 37.454117 -120.113708 11,975 342 210 64
2022-12-05 15:59:17 GMT 37.444427 -120.109550 11,975 342 210 64
2022-12-05 15:59:06 GMT 37.435089 -120.105347 11,950 340 209 192
2022-12-05 15:58:58 GMT 37.427673 -120.101761 11,900 339 210 256
2022-12-05 15:58:55 GMT 37.425346 -120.100632 11,900 339 211 320
2022-12-05 15:58:45 GMT 37.416138 -120.095993 11,875 338 213 192
2022-12-05 15:58:37 GMT 37.408726 -120.092148 11,850 338 213 0
2022-12-05 15:58:34 GMT 37.406433 -120.090965 11,850 338 213 -64
2022-12-05 15:58:25 GMT 37.396576 -120.086060 11,875 338 211 -192
2022-12-05 15:58:16 GMT 37.389771 -120.082550 11,925 339 210 -384
2022-12-05 15:58:13 GMT 37.386429 -120.080925 11,950 339 208 -256
2022-12-05 15:58:06 GMT 37.380562 -120.077995 11,925 339 206 128
2022-12-05 15:58:03 GMT 37.378094 -120.076744 11,925 339 205 128
2022-12-05 15:57:54 GMT 37.369019 -120.072266 11,900 339 205 64
2022-12-05 15:57:43 GMT 37.360107 -120.067886 11,900 340 205 64
2022-12-05 15:57:33 GMT 37.350586 -120.063560 11,875 342 206 256
2022-12-05 15:57:22 GMT 37.340992 -120.059669 11,825 342 208 0
2022-12-05 15:57:15 GMT 37.333683 -120.056564 11,825 341 208 -64
2022-12-05 15:57:11 GMT 37.331310 -120.055550 11,825 341 209 -128
2022-12-05 15:57:02 GMT 37.321930 -120.051292 11,850 341 210 64
2022-12-05 15:56:51 GMT 37.312595 -120.047188 11,850 341 211 -256
2022-12-05 15:56:44 GMT 37.305862 -120.044334 11,850 342 209 -128
2022-12-05 15:56:41 GMT 37.302933 -120.043106 11,875 342 209 -128
2022-12-05 15:56:30 GMT 37.293465 -120.038948 11,850 340 210 0
2022-12-05 15:56:20 GMT 37.283966 -120.034531 11,775 340 212 512
2022-12-05 15:56:13 GMT 37.276752 -120.031067 11,775 339 215 -192
2022-12-05 15:56:10 GMT 37.274231 -120.029785 11,775 339 215 -128
2022-12-05 15:56:02 GMT 37.267300 -120.026291 11,800 339 215 -64
2022-12-05 15:55:59 GMT 37.264618 -120.024994 11,800 340 216 -64
2022-12-05 15:55:49 GMT 37.254917 -120.020622 11,850 341 214 -448
2022-12-05 15:55:42 GMT 37.247982 -120.017517 11,875 341 214 -128
2022-12-05 15:55:38 GMT 37.244816 -120.016083 11,900 341 214 -128
2022-12-05 15:55:31 GMT 37.238754 -120.013367 11,900 341 213 -128
2022-12-05 15:55:27 GMT 37.234497 -120.011375 11,925 340 212 -128
2022-12-05 15:55:20 GMT 37.228848 -120.008675 11,875 339 214 512
2022-12-05 15:55:17 GMT 37.225681 -120.007187 11,875 339 216 256
2022-12-05 15:55:11 GMT 37.219437 -120.004128 11,850 339 218 128
2022-12-05 15:55:06 GMT 37.215534 -120.002228 11,825 340 219 -128
2022-12-05 15:55:00 GMT 37.209435 -119.999367 11,850 339 220 -192
2022-12-05 15:54:56 GMT 37.205338 -119.997353 11,875 338 220 -192
2022-12-05 15:54:49 GMT 37.199707 -119.994484 11,900 338 220 -256
2022-12-05 15:54:44 GMT 37.194809 -119.991913 11,925 338 220 -448
2022-12-05 15:54:40 GMT 37.189957 -119.989342 11,950 338 219 -320
2022-12-05 15:54:36 GMT 37.186115 -119.987305 11,975 338 218 -256
2022-12-05 15:54:28 GMT 37.179657 -119.983910 11,975 337 218 64
2022-12-05 15:54:25 GMT 37.176571 -119.982285 11,975 337 220 0
2022-12-05 15:54:18 GMT 37.170319 -119.978828 12,000 337 220 -256
2022-12-05 15:54:14 GMT 37.166702 -119.976852 12,000 337 218 -128
2022-12-05 15:54:09 GMT 37.160744 -119.973511 12,025 336 217 -64
2022-12-05 15:54:04 GMT 37.157364 -119.971581 12,025 336 217 64
2022-12-05 15:53:57 GMT 37.151058 -119.967896 12,000 335 218 320
2022-12-05 15:53:54 GMT 37.147755 -119.965927 11,975 335 218 192
2022-12-05 15:53:47 GMT 37.141888 -119.962463 11,950 335 219 128
2022-12-05 15:53:43 GMT 37.137405 -119.959778 11,950 335 220 128
2022-12-05 15:53:38 GMT 37.132671 -119.957031 11,925 336 220 -64
2022-12-05 15:53:33 GMT 37.128529 -119.954819 11,950 337 219 -192
2022-12-05 15:53:27 GMT 37.123032 -119.951889 11,975 338 219 -128
2022-12-05 15:53:22 GMT 37.118088 -119.949371 11,975 339 218 -128
2022-12-05 15:53:16 GMT 37.112823 -119.946861 11,975 340 218 64
2022-12-05 15:53:11 GMT 37.108475 -119.944817 11,950 340 218 320
2022-12-05 15:53:06 GMT 37.103252 -119.942398 11,925 340 219 384
2022-12-05 15:53:00 GMT 37.097477 -119.939774 11,875 340 220 320
2022-12-05 15:52:56 GMT 37.093430 -119.937920 11,875 340 222 128
2022-12-05 15:52:51 GMT 37.088215 -119.935478 11,875 341 222 -64
2022-12-05 15:52:45 GMT 37.083374 -119.933327 11,875 342 222 -320
2022-12-05 15:52:41 GMT 37.079090 -119.931534 11,900 341 220 -256
2022-12-05 15:52:35 GMT 37.073227 -119.928917 11,925 340 219 -128
2022-12-05 15:52:30 GMT 37.068382 -119.926582 11,950 339 218 0
2022-12-05 15:52:24 GMT 37.063263 -119.924133 11,950 339 218 64
2022-12-05 15:52:20 GMT 37.059120 -119.922104 11,950 339 218 0
2022-12-05 15:52:15 GMT 37.052929 -119.918999 11,925 339 219 192
2022-12-05 15:52:09 GMT 37.049343 -119.917206 11,900 339 219 192
2022-12-05 15:52:03 GMT 37.043381 -119.914253 11,900 339 219 0
2022-12-05 15:52:00 GMT 37.039581 -119.912323 11,900 339 219 -256
2022-12-05 15:51:53 GMT 37.033421 -119.909386 11,950 340 218 -320
2022-12-05 15:51:48 GMT 37.028961 -119.907356 11,975 341 217 -384
2022-12-05 15:51:44 GMT 37.024532 -119.905319 11,950 341 217 128
2022-12-05 15:51:39 GMT 37.019897 -119.903206 11,925 340 218 320
2022-12-05 15:51:33 GMT 37.014477 -119.900726 11,900 340 219 384
2022-12-05 15:51:28 GMT 37.009598 -119.898415 11,875 340 220 192
2022-12-05 15:51:23 GMT 37.004654 -119.896019 11,875 339 220 -256
2022-12-05 15:51:16 GMT 36.998882 -119.893143 11,925 338 217 -448
2022-12-05 15:51:13 GMT 36.994858 -119.891052 11,950 338 217 -448
2022-12-05 15:51:01 GMT 36.984741 -119.885796 12,025 337 213 -128
2022-12-05 15:50:51 GMT 36.975464 -119.880722 12,000 337 212 -64
2022-12-05 15:50:42 GMT 36.966667 -119.875885 11,975 337 212 576
2022-12-05 15:50:36 GMT 36.962219 -119.873520 11,925 337 214 448
2022-12-05 15:50:31 GMT 36.957588 -119.870987 11,900 337 215 256
2022-12-05 15:50:20 GMT 36.948093 -119.865677 11,875 337 216 128
2022-12-05 15:50:11 GMT 36.938278 -119.860313 11,900 338 215 -448
2022-12-05 15:49:59 GMT 36.928307 -119.855225 12,000 339 211 -384
2022-12-05 15:49:48 GMT 36.918205 -119.850388 11,900 340 213 640
2022-12-05 15:49:39 GMT 36.909027 -119.846291 11,825 341 219 512
2022-12-05 15:49:29 GMT 36.900009 -119.842255 11,825 338 219 -448
2022-12-05 15:49:17 GMT 36.889114 -119.835945 11,975 336 212 -64
2022-12-05 15:49:08 GMT 36.880405 -119.831642 11,925 339 213 256
2022-12-05 15:48:56 GMT 36.870163 -119.826538 11,900 339 214 -64
2022-12-05 15:48:47 GMT 36.861736 -119.822510 11,925 339 213 -192
2022-12-05 15:48:36 GMT 36.850800 -119.817131 11,925 339 211 128
2022-12-05 15:48:27 GMT 36.842972 -119.813400 11,900 341 213 192
2022-12-05 15:48:15 GMT 36.831711 -119.808655 11,900 343 214 -64
2022-12-05 15:48:07 GMT 36.823238 -119.805443 11,900 344 214 -192
2022-12-05 15:47:55 GMT 36.813046 -119.801407 11,925 342 212 0
2022-12-05 15:47:45 GMT 36.803642 -119.797493 11,900 342 213 64
2022-12-05 15:47:36 GMT 36.794518 -119.793633 11,925 342 213 -64
2022-12-05 15:47:24 GMT 36.784416 -119.789368 11,925 341 212 -192
2022-12-05 15:47:14 GMT 36.774918 -119.785217 11,975 341 211 -192
2022-12-05 15:47:04 GMT 36.765152 -119.780731 11,975 339 209 -128
2022-12-05 15:46:53 GMT 36.755550 -119.775810 11,975 337 209 192
2022-12-05 15:46:43 GMT 36.746708 -119.770790 11,925 336 210 128
2022-12-05 15:46:33 GMT 36.737862 -119.766167 11,925 338 212 64
2022-12-05 15:46:23 GMT 36.728554 -119.761497 11,925 340 212 -128
2022-12-05 15:46:12 GMT 36.718918 -119.757233 11,975 341 211 -128
2022-12-05 15:46:01 GMT 36.708160 -119.752670 11,975 342 210 0
2022-12-05 15:45:51 GMT 36.698822 -119.748634 11,925 341 212 384
2022-12-05 15:45:41 GMT 36.689713 -119.744568 11,875 340 213 64
2022-12-05 15:45:31 GMT 36.680183 -119.740105 11,900 339 212 -192
2022-12-05 15:45:20 GMT 36.670826 -119.735435 11,925 340 212 -64
2022-12-05 15:45:09 GMT 36.659500 -119.730148 11,900 340 213 64
2022-12-05 15:44:58 GMT 36.649506 -119.725380 11,925 339 211 -128
2022-12-05 15:44:50 GMT 36.642700 -119.722023 11,925 338 210 -128
2022-12-05 15:44:46 GMT 36.639587 -119.720474 11,925 338 210 0
2022-12-05 15:44:40 GMT 36.633213 -119.717255 11,925 339 210 128
2022-12-05 15:44:28 GMT 36.623520 -119.712357 11,900 338 212 256
2022-12-05 15:44:19 GMT 36.614410 -119.707718 11,875 338 213 -64
2022-12-05 15:44:09 GMT 36.604706 -119.702850 11,925 338 212 -320
2022-12-05 15:43:58 GMT 36.595779 -119.698395 11,925 338 212 128
2022-12-05 15:43:48 GMT 36.586197 -119.693535 11,925 339 212 0
2022-12-05 15:43:38 GMT 36.576046 -119.688622 11,925 339 213 -64
2022-12-05 15:43:27 GMT 36.566875 -119.684128 11,950 339 212 -64
2022-12-05 15:43:23 GMT 36.563805 -119.682602 11,950 339 212 -64
2022-12-05 15:43:17 GMT 36.557892 -119.679680 11,950 339 212 0
2022-12-05 15:43:11 GMT 36.551468 -119.676582 11,950 339 213 0
2022-12-05 15:43:07 GMT 36.548264 -119.674988 11,950 339 212 -64
2022-12-05 15:43:01 GMT 36.543503 -119.672646 11,975 339 213 -64
2022-12-05 15:42:56 GMT 36.538559 -119.670181 11,975 338 212 -128
2022-12-05 15:42:52 GMT 36.534477 -119.668114 11,975 339 211 -128
2022-12-05 15:42:45 GMT 36.529030 -119.665421 12,000 339 210 -64
2022-12-05 15:42:39 GMT 36.523132 -119.662460 12,000 339 210 0
2022-12-05 15:42:36 GMT 36.519814 -119.660805 11,975 338 210 64
2022-12-05 15:42:32 GMT 36.516369 -119.659111 11,975 338 210 192
2022-12-05 15:42:24 GMT 36.510223 -119.656013 11,950 338 210 128
2022-12-05 15:42:18 GMT 36.504402 -119.653038 11,925 338 212 192
2022-12-05 15:42:14 GMT 36.500473 -119.651070 11,925 338 212 320
2022-12-05 15:42:08 GMT 36.494431 -119.648041 11,875 339 214 320
2022-12-05 15:42:05 GMT 36.491638 -119.646721 11,875 339 215 -64
2022-12-05 15:41:59 GMT 36.486900 -119.644386 11,900 339 214 -192
2022-12-05 15:41:54 GMT 36.482208 -119.642143 11,925 339 213 -512
2022-12-05 15:41:50 GMT 36.477867 -119.640060 11,950 339 211 -384
2022-12-05 15:41:43 GMT 36.472420 -119.637375 11,975 339 209 -128
2022-12-05 15:41:34 GMT 36.463120 -119.632874 11,950 339 210 448
2022-12-05 15:41:29 GMT 36.458454 -119.630653 11,900 339 212 512
2022-12-05 15:41:23 GMT 36.453735 -119.628410 11,875 340 214 448
2022-12-05 15:41:16 GMT 36.447285 -119.625397 11,825 340 216 192
2022-12-05 15:41:12 GMT 36.444168 -119.623947 11,825 340 217 64
2022-12-05 15:41:08 GMT 36.438904 -119.621490 11,825 339 217 -192
2022-12-05 15:41:03 GMT 36.434235 -119.619255 11,850 339 217 -256
2022-12-05 15:40:55 GMT 36.427872 -119.616112 11,875 339 215 -320
2022-12-05 15:40:52 GMT 36.424797 -119.614639 11,900 339 215 -256
2022-12-05 15:40:47 GMT 36.419724 -119.612221 11,900 339 214 -64
2022-12-05 15:40:41 GMT 36.415054 -119.609985 11,900 339 213 128
2022-12-05 15:40:35 GMT 36.409149 -119.607185 11,875 339 214 320
2022-12-05 15:40:31 GMT 36.405525 -119.605408 11,850 339 215 256
2022-12-05 15:40:26 GMT 36.399536 -119.602432 11,850 338 215 0
2022-12-05 15:40:21 GMT 36.396194 -119.600777 11,850 338 215 -64
2022-12-05 15:40:13 GMT 36.388962 -119.597168 11,875 339 215 -128
2022-12-05 15:40:10 GMT 36.386440 -119.596001 11,875 339 214 -64
2022-12-05 15:40:05 GMT 36.380714 -119.593254 11,875 340 214 0
2022-12-05 15:40:00 GMT 36.376511 -119.591331 11,875 340 215 -192
2022-12-05 15:39:53 GMT 36.370514 -119.588638 11,900 341 214 -192
2022-12-05 15:39:50 GMT 36.367126 -119.587212 11,925 342 213 -128
2022-12-05 15:39:44 GMT 36.360882 -119.584541 11,925 342 213 -64
2022-12-05 15:39:39 GMT 36.357422 -119.583153 11,950 342 212 -128
2022-12-05 15:39:32 GMT 36.350693 -119.580345 11,925 342 212 0
2022-12-05 15:39:29 GMT 36.347534 -119.579025 11,950 342 211 64
2022-12-05 15:39:23 GMT 36.341518 -119.576485 11,925 341 211 192
2022-12-05 15:39:18 GMT 36.338104 -119.574905 11,925 340 211 192
2022-12-05 15:39:11 GMT 36.331421 -119.571533 11,875 337 211 256
2022-12-05 15:39:08 GMT 36.328762 -119.570168 11,875 338 212 192
2022-12-05 15:39:02 GMT 36.321487 -119.566666 11,850 339 214 64
2022-12-05 15:38:58 GMT 36.319290 -119.565582 11,850 339 214 64
2022-12-05 15:38:48 GMT 36.309631 -119.560944 11,850 339 215 0
2022-12-05 15:38:41 GMT 36.302536 -119.557571 11,875 339 214 -256
2022-12-05 15:38:37 GMT 36.299294 -119.556030 11,875 339 214 -128
2022-12-05 15:38:30 GMT 36.293839 -119.553391 11,875 339 214 64
2022-12-05 15:38:27 GMT 36.290264 -119.551704 11,875 340 214 128
2022-12-05 15:38:17 GMT 36.280838 -119.547386 11,875 340 214 -256
2022-12-05 15:38:10 GMT 36.274620 -119.544456 11,925 339 211 -128
2022-12-05 15:38:07 GMT 36.271503 -119.542999 11,925 339 211 -128
2022-12-05 15:37:56 GMT 36.261818 -119.538498 11,900 340 212 576
2022-12-05 15:37:45 GMT 36.251949 -119.533936 11,825 340 215 128
2022-12-05 15:37:38 GMT 36.243851 -119.530106 11,850 340 215 -128
2022-12-05 15:37:26 GMT 36.234028 -119.525520 11,850 340 215 -128
2022-12-05 15:37:17 GMT 36.224579 -119.521233 11,875 340 214 -64
2022-12-05 15:37:12 GMT 36.220947 -119.519562 11,875 340 214 0
2022-12-05 15:37:05 GMT 36.214691 -119.516716 11,875 340 214 -64
2022-12-05 15:37:02 GMT 36.210705 -119.514885 11,875 340 214 -64
2022-12-05 15:36:56 GMT 36.205116 -119.512260 11,875 340 215 -128
2022-12-05 15:36:44 GMT 36.195007 -119.507446 11,875 340 214 -64
2022-12-05 15:36:35 GMT 36.180492 -119.500923 11,875 342 215 -192
2022-12-05 15:36:22 GMT 36.174068 -119.498230 11,900 341 214 -256
2022-12-05 15:36:12 GMT 36.165070 -119.494225 11,950 340 211 64
2022-12-05 15:36:01 GMT 36.153900 -119.489021 11,925 339 211 64
2022-12-05 15:35:53 GMT 36.146072 -119.485245 11,925 339 210 192
2022-12-05 15:35:42 GMT 36.137009 -119.480843 11,925 339 210 256
2022-12-05 15:35:32 GMT 36.127609 -119.476379 11,850 339 212 128
2022-12-05 15:35:21 GMT 36.118240 -119.472031 11,875 340 212 -128
2022-12-05 15:35:10 GMT 36.107803 -119.467506 11,900 342 213 0
2022-12-05 15:35:01 GMT 36.098747 -119.463577 11,900 341 213 64
2022-12-05 15:34:50 GMT 36.089066 -119.459251 11,875 340 214 0
2022-12-05 15:34:39 GMT 36.079334 -119.454872 11,900 340 213 -128
2022-12-05 15:34:29 GMT 36.070038 -119.450516 11,900 340 212 128
2022-12-05 15:34:18 GMT 36.059601 -119.445824 11,925 341 213 -256
2022-12-05 15:34:05 GMT 36.047516 -119.440102 11,975 340 210 -64
2022-12-05 15:33:58 GMT 36.041206 -119.437164 11,975 340 210 128
2022-12-05 15:33:47 GMT 36.031433 -119.432838 11,925 341 212 320
2022-12-05 15:33:37 GMT 36.022385 -119.428886 11,875 341 215 128
2022-12-05 15:33:26 GMT 36.011181 -119.424072 11,900 341 215 -320
2022-12-05 15:33:17 GMT 36.002804 -119.420395 11,950 340 212 0
2022-12-05 15:33:06 GMT 35.992722 -119.415779 11,950 340 213 -64
2022-12-05 15:32:28 GMT 35.958160 -119.400162 11,925 341 211 256
2022-12-05 15:32:25 GMT 35.955273 -119.398888 11,925 341 213 128
2022-12-05 15:32:12 GMT 35.943542 -119.393684 11,925 341 213 -128
2022-12-05 15:32:03 GMT 35.934929 -119.390060 11,950 342 212 -128
2022-12-05 15:31:18 GMT 35.894989 -119.368233 11,900 336 210 128

Making use of Plane Finder data

You are free to use the raw flight data, aircraft information and images provided in this report for your own purposes provided the data is correctly attributed to Plane Finder. We ask that you please credit Plane Finder and link to planefinder.net in close proximity to the content.

Optionally one of the following logos (no smaller then 150x24px) can be used and must link to planefinder.net

Embedding the Plane Finder map

You are welcome to embed the Plane Finder playback map on your website to offer visitors a more interactive experience. We suggest using the following HTML code:

<iframe src="//planefinder.net/data/report/A81450-N96AV-7700-squawk-2022-12-05/map" width="800" height="600" seamless="seamless"></iframe>

Where our data comes from

Plane Finder has a global network of data feeds and antenna radars that receive data broadcast directly from aircraft. The primary technologies used are ADS-B and MLAT. We also show feeds from the FAA and a FLARM glider feed.

Click here to find out more about the Plane Finder network.

How we collect our data